createdAt,value
2018-05-14T00:00:10.801Z,15.36
2018-05-14T00:01:19.454Z,15.35
2018-05-14T00:02:28.364Z,15.36
2018-05-14T00:03:37.019Z,15.36
2018-05-14T00:04:45.945Z,15.37
2018-05-14T00:05:54.583Z,15.36
2018-05-14T00:07:03.236Z,15.39
2018-05-14T00:08:11.882Z,15.41
2018-05-14T00:09:20.529Z,15.44
2018-05-14T00:10:29.448Z,15.32
2018-05-14T00:11:38.097Z,15.32
2018-05-14T00:12:46.746Z,15.36
2018-05-14T00:13:55.395Z,15.33
2018-05-14T00:15:04.037Z,15.43
2018-05-14T00:16:12.684Z,15.41
2018-05-14T00:17:21.592Z,15.36
2018-05-14T00:18:30.242Z,15.41
2018-05-14T00:19:38.890Z,15.35
2018-05-14T00:20:47.533Z,15.39
2018-05-14T00:21:56.176Z,15.36
2018-05-14T00:23:04.888Z,15.47
2018-05-14T00:24:13.471Z,15.39
2018-05-14T00:25:22.111Z,15.36
2018-05-14T00:26:30.757Z,15.43
2018-05-14T00:27:39.406Z,15.35
2018-05-14T00:28:48.051Z,15.33
2018-05-14T00:29:56.690Z,15.36
2018-05-14T00:31:05.609Z,15.36
2018-05-14T00:32:14.254Z,15.37
2018-05-14T00:33:22.904Z,15.43
2018-05-14T00:34:31.545Z,15.41
2018-05-14T00:35:40.195Z,15.47
2018-05-14T00:36:48.837Z,15.43
2018-05-14T00:37:57.479Z,15.35
2018-05-14T00:39:06.130Z,15.37
2018-05-14T00:40:14.779Z,15.36
2018-05-14T00:41:23.422Z,15.35
2018-05-14T00:42:32.332Z,15.43
2018-05-14T00:43:40.981Z,15.36
2018-05-14T00:44:49.628Z,15.41
2018-05-14T00:45:58.272Z,15.41
2018-05-14T00:47:06.912Z,15.45
2018-05-14T00:48:15.561Z,15.45
2018-05-14T00:49:24.286Z,15.43
2018-05-14T00:50:32.853Z,15.45
2018-05-14T00:51:41.492Z,15.48
2018-05-14T00:52:50.137Z,15.41
2018-05-14T00:53:58.783Z,15.5
2018-05-14T00:55:07.433Z,15.41
2018-05-14T00:56:16.077Z,15.39
2018-05-14T00:57:24.719Z,15.48
2018-05-14T00:58:33.367Z,15.47
2018-05-14T00:59:42.278Z,15.39
2018-05-14T01:00:50.929Z,15.48
2018-05-14T01:01:59.568Z,15.47
2018-05-14T01:03:08.213Z,15.43
2018-05-14T01:04:16.859Z,15.47
2018-05-14T01:05:25.510Z,15.45
2018-05-14T01:06:34.152Z,15.5
2018-05-14T01:07:42.798Z,15.41
2018-05-14T01:08:51.709Z,15.41
2018-05-14T01:10:00.359Z,15.39
2018-05-14T01:11:09.003Z,15.54
2018-05-14T01:12:17.649Z,15.43
2018-05-14T01:13:26.556Z,15.5
2018-05-14T01:14:35.745Z,15.45
2018-05-14T01:15:44.660Z,15.44
2018-05-14T01:16:53.304Z,15.44
2018-05-14T01:18:01.948Z,15.43
2018-05-14T01:19:10.590Z,15.41
2018-05-14T01:20:19.238Z,15.45
2018-05-14T01:21:27.885Z,15.41
2018-05-14T01:22:36.532Z,15.41
2018-05-14T01:23:45.183Z,15.39
2018-05-14T01:24:53.825Z,15.44
2018-05-14T01:26:02.472Z,15.44
2018-05-14T01:27:11.385Z,15.47
2018-05-14T01:28:20.290Z,15.44
2018-05-14T01:29:28.937Z,15.5
2018-05-14T01:30:37.581Z,15.47
2018-05-14T01:31:46.491Z,15.41
2018-05-14T01:32:55.139Z,15.5
2018-05-14T01:34:03.781Z,15.48
2018-05-14T01:35:12.426Z,15.43
2018-05-14T01:36:21.070Z,15.44
2018-05-14T01:37:29.722Z,15.48
2018-05-14T01:38:38.362Z,15.52
2018-05-14T01:39:47.010Z,15.48
2018-05-14T01:40:55.655Z,15.45
2018-05-14T01:42:04.307Z,15.45
2018-05-14T01:43:12.945Z,15.54
2018-05-14T01:44:21.595Z,15.45
2018-05-14T01:45:30.242Z,15.59
2018-05-14T01:46:38.893Z,15.5
2018-05-14T01:47:47.536Z,15.51
2018-05-14T01:48:56.446Z,15.54
2018-05-14T01:50:05.089Z,15.52
2018-05-14T01:51:14.021Z,15.59
2018-05-14T01:52:22.669Z,15.62
2018-05-14T01:53:31.310Z,15.51
2018-05-14T01:54:39.959Z,15.6
2018-05-14T01:55:48.598Z,15.54
2018-05-14T01:56:57.255Z,15.45
2018-05-14T01:58:06.166Z,15.54
2018-05-14T01:59:14.810Z,15.63
2018-05-14T02:00:23.447Z,15.55
2018-05-14T02:01:32.101Z,15.51
2018-05-14T02:02:40.748Z,15.6
2018-05-14T02:03:49.394Z,15.57
2018-05-14T02:04:58.032Z,15.63
2018-05-14T02:06:06.680Z,15.52
2018-05-14T02:07:15.330Z,15.55
2018-05-14T02:08:23.987Z,15.57
2018-05-14T02:09:32.895Z,15.54
2018-05-14T02:10:41.530Z,15.5
2018-05-14T02:11:50.182Z,15.51
2018-05-14T02:12:58.821Z,15.57
2018-05-14T02:14:07.477Z,15.54
2018-05-14T02:15:16.380Z,15.47
2018-05-14T02:16:25.294Z,15.54
2018-05-14T02:17:33.932Z,15.57
2018-05-14T02:18:42.586Z,15.48
2018-05-14T02:19:51.223Z,15.5
2018-05-14T02:20:59.869Z,15.57
2018-05-14T02:22:08.515Z,15.54
2018-05-14T02:23:17.174Z,15.6
2018-05-14T02:24:26.082Z,15.51
2018-05-14T02:25:34.724Z,15.51
2018-05-14T02:26:43.364Z,15.57
2018-05-14T02:27:52.005Z,15.59
2018-05-14T02:29:00.659Z,15.52
2018-05-14T02:30:09.303Z,15.59
2018-05-14T02:31:18.325Z,15.54
2018-05-14T02:32:27.238Z,15.47
2018-05-14T02:33:35.886Z,15.44
2018-05-14T02:34:44.526Z,15.47
2018-05-14T02:35:53.183Z,15.51
2018-05-14T02:37:01.819Z,15.45
2018-05-14T02:38:11.010Z,15.43
2018-05-14T02:39:19.658Z,15.54
2018-05-14T02:40:28.851Z,15.44
2018-05-14T02:41:37.750Z,15.44
2018-05-14T02:42:46.401Z,15.43
2018-05-14T02:43:55.057Z,15.43
2018-05-14T02:45:03.708Z,15.48
2018-05-14T02:46:12.661Z,15.41
2018-05-14T02:47:21.560Z,15.43
2018-05-14T02:48:30.218Z,15.5
2018-05-14T02:49:38.861Z,15.52
2018-05-14T02:50:47.786Z,15.45
2018-05-14T02:51:56.714Z,15.52
2018-05-14T02:53:05.623Z,15.39
2018-05-14T02:54:14.278Z,15.44
2018-05-14T02:55:23.186Z,15.37
2018-05-14T02:56:31.841Z,15.41
2018-05-14T02:57:40.488Z,15.39
2018-05-14T02:58:49.143Z,15.3
2018-05-14T02:59:57.786Z,15.37
2018-05-14T03:01:06.432Z,15.3
2018-05-14T03:02:15.620Z,15.3
2018-05-14T03:03:24.533Z,15.32
2018-05-14T03:04:33.447Z,15.32
2018-05-14T03:05:42.368Z,15.41
2018-05-14T03:06:51.465Z,15.29
2018-05-14T03:08:00.529Z,15.25
2018-05-14T03:09:09.184Z,15.33
2018-05-14T03:10:18.023Z,15.32
2018-05-14T03:11:26.775Z,15.36
2018-05-14T03:12:35.419Z,15.35
2018-05-14T03:13:44.075Z,15.33
2018-05-14T03:14:52.710Z,15.37
2018-05-14T03:16:01.371Z,15.36
2018-05-14T03:17:10.019Z,15.33
2018-05-14T03:18:18.672Z,15.33
2018-05-14T03:19:27.314Z,15.32
2018-05-14T03:20:35.954Z,15.33
2018-05-14T03:21:44.597Z,15.37
2018-05-14T03:22:53.242Z,15.32
2018-05-14T03:24:01.894Z,15.37
2018-05-14T03:25:10.798Z,15.25
2018-05-14T03:26:19.446Z,15.33
2018-05-14T03:27:28.085Z,15.26
2018-05-14T03:28:36.739Z,15.3
2018-05-14T03:29:45.379Z,15.25
2018-05-14T03:30:54.297Z,15.29
2018-05-14T03:32:02.938Z,15.27
2018-05-14T03:33:11.588Z,15.27
2018-05-14T03:34:20.232Z,15.27
2018-05-14T03:35:28.888Z,15.29
2018-05-14T03:36:38.060Z,15.29
2018-05-14T03:37:46.706Z,15.26
2018-05-14T03:38:55.356Z,15.27
2018-05-14T03:40:04.003Z,15.22
2018-05-14T03:41:12.649Z,15.27
2018-05-14T03:42:21.283Z,15.29
2018-05-14T03:43:29.938Z,15.29
2018-05-14T03:44:38.574Z,15.29
2018-05-14T03:45:47.491Z,15.32
2018-05-14T03:46:56.130Z,15.26
2018-05-14T03:48:04.781Z,15.32
2018-05-14T03:49:13.422Z,15.27
2018-05-14T03:50:22.075Z,15.25
2018-05-14T03:51:30.714Z,15.29
2018-05-14T03:52:39.666Z,15.27
2018-05-14T03:53:48.273Z,15.25
2018-05-14T03:54:56.923Z,15.18
2018-05-14T03:56:05.565Z,15.18
2018-05-14T03:57:14.211Z,15.1
2018-05-14T03:58:22.855Z,15.12
2018-05-14T03:59:31.507Z,15.15
2018-05-14T04:00:40.159Z,15.18
2018-05-14T04:01:48.805Z,15.18
2018-05-14T04:02:57.449Z,15.17
2018-05-14T04:04:06.091Z,15.18
2018-05-14T04:05:14.740Z,15.18
2018-05-14T04:06:23.390Z,15.27
2018-05-14T04:07:32.036Z,15.18
2018-05-14T04:08:40.677Z,15.15
2018-05-14T04:09:49.326Z,15.22
2018-05-14T04:10:57.971Z,15.19
2018-05-14T04:12:06.890Z,15.23
2018-05-14T04:13:15.529Z,15.26
2018-05-14T04:14:24.178Z,15.14
2018-05-14T04:15:33.090Z,15.25
2018-05-14T04:16:41.751Z,15.23
2018-05-14T04:17:50.385Z,15.19
2018-05-14T04:18:59.292Z,15.27
2018-05-14T04:20:07.936Z,15.26
2018-05-14T04:21:16.582Z,15.19
2018-05-14T04:22:25.233Z,15.22
2018-05-14T04:23:33.873Z,15.27
2018-05-14T04:24:42.520Z,15.29
2018-05-14T04:25:51.163Z,15.25
2018-05-14T04:26:59.813Z,15.22
2018-05-14T04:28:08.452Z,15.29
2018-05-14T04:29:17.102Z,15.26
2018-05-14T04:30:26.013Z,15.26
2018-05-14T04:31:34.664Z,15.26
2018-05-14T04:32:43.309Z,15.33
2018-05-14T04:33:51.955Z,15.29
2018-05-14T04:35:00.599Z,15.23
2018-05-14T04:36:09.242Z,15.26
2018-05-14T04:37:17.891Z,15.27
2018-05-14T04:38:26.541Z,15.29
2018-05-14T04:39:35.447Z,15.27
2018-05-14T04:40:44.090Z,15.29
2018-05-14T04:41:52.739Z,15.26
2018-05-14T04:43:01.406Z,15.23
2018-05-14T04:44:10.050Z,15.18
2018-05-14T04:45:18.696Z,15.32
2018-05-14T04:46:27.339Z,15.14
2018-05-14T04:47:35.983Z,15.25
2018-05-14T04:48:44.628Z,15.15
2018-05-14T04:49:53.282Z,15.12
2018-05-14T04:51:01.931Z,15.15
2018-05-14T04:52:10.570Z,15.19
2018-05-14T04:53:19.480Z,15.11
2018-05-14T04:54:28.123Z,15.26
2018-05-14T04:55:36.777Z,15.18
2018-05-14T04:56:45.681Z,15.26
2018-05-14T04:57:54.332Z,15.32
2018-05-14T04:59:02.971Z,15.29
2018-05-14T05:00:11.623Z,15.29
2018-05-14T05:01:20.263Z,15.27
2018-05-14T05:02:28.914Z,15.35
2018-05-14T05:03:37.550Z,15.36
2018-05-14T05:04:46.212Z,15.41
2018-05-14T05:05:55.110Z,15.43
2018-05-14T05:07:03.758Z,15.39
2018-05-14T05:08:12.394Z,15.6
2018-05-14T05:09:21.041Z,15.52
2018-05-14T05:10:29.854Z,15.45
2018-05-14T05:11:38.341Z,15.48
2018-05-14T05:12:46.987Z,15.57
2018-05-14T05:13:55.887Z,15.51
2018-05-14T05:15:04.541Z,15.62
2018-05-14T05:16:13.181Z,15.52
2018-05-14T05:17:21.837Z,15.6
2018-05-14T05:18:30.474Z,15.67
2018-05-14T05:19:39.387Z,15.7
2018-05-14T05:20:48.027Z,15.69
2018-05-14T05:21:56.684Z,15.67
2018-05-14T05:23:05.321Z,15.62
2018-05-14T05:24:13.970Z,15.67
2018-05-14T05:25:22.616Z,15.62
2018-05-14T05:26:31.278Z,15.63
2018-05-14T05:27:40.182Z,15.5
2018-05-14T05:28:49.094Z,15.62
2018-05-14T05:29:58.008Z,15.6
2018-05-14T05:31:06.914Z,15.52
2018-05-14T05:32:15.574Z,15.55
2018-05-14T05:33:24.210Z,15.54
2018-05-14T05:34:32.879Z,15.55
2018-05-14T05:35:41.498Z,15.6
2018-05-14T05:36:50.150Z,15.63
2018-05-14T05:37:58.800Z,15.66
2018-05-14T05:39:07.712Z,15.6
2018-05-14T05:40:16.612Z,15.73
2018-05-14T05:41:25.533Z,15.72
2018-05-14T05:42:34.178Z,15.83
2018-05-14T05:43:43.091Z,15.76
2018-05-14T05:44:51.725Z,15.73
2018-05-14T05:46:00.397Z,15.81
2018-05-14T05:47:09.022Z,15.81
2018-05-14T05:48:17.668Z,15.84
2018-05-14T05:49:26.320Z,15.85
2018-05-14T05:50:34.962Z,15.87
2018-05-14T05:51:43.613Z,16.08
2018-05-14T05:52:52.521Z,16.22
2018-05-14T05:54:01.432Z,16.17
2018-05-14T05:55:10.077Z,16.21
2018-05-14T05:56:18.990Z,16.26
2018-05-14T05:57:27.634Z,16.31
2018-05-14T05:58:36.297Z,16.41
2018-05-14T05:59:45.471Z,16.51
2018-05-14T06:00:54.112Z,16.66
2018-05-14T06:02:03.022Z,16.65
2018-05-14T06:03:11.675Z,16.65
2018-05-14T06:04:20.332Z,16.5
2018-05-14T06:05:28.978Z,16.47
2018-05-14T06:06:37.628Z,16.37
2018-05-14T06:07:46.266Z,16.31
2018-05-14T06:08:54.919Z,16.12
2018-05-14T06:10:03.566Z,15.9
2018-05-14T06:11:12.477Z,15.9
2018-05-14T06:12:21.120Z,15.76
2018-05-14T06:13:29.769Z,15.67
2018-05-14T06:14:38.417Z,15.7
2018-05-14T06:15:47.065Z,15.6
2018-05-14T06:16:55.710Z,15.66
2018-05-14T06:18:04.358Z,15.67
2018-05-14T06:19:13.005Z,15.66
2018-05-14T06:20:22.179Z,15.65
2018-05-14T06:21:31.088Z,15.63
2018-05-14T06:22:39.738Z,15.7
2018-05-14T06:23:48.383Z,15.73
2018-05-14T06:24:57.304Z,15.73
2018-05-14T06:26:05.955Z,15.76
2018-05-14T06:27:14.594Z,15.72
2018-05-14T06:28:23.240Z,15.8
2018-05-14T06:29:31.886Z,15.9
2018-05-14T06:30:40.539Z,15.87
2018-05-14T06:31:49.179Z,15.9
2018-05-14T06:32:57.826Z,15.98
2018-05-14T06:34:06.824Z,15.94
2018-05-14T06:35:15.400Z,16.09
2018-05-14T06:36:24.308Z,16
2018-05-14T06:37:32.956Z,16.05
2018-05-14T06:38:41.601Z,16.12
2018-05-14T06:39:50.248Z,16.1
2018-05-14T06:40:58.890Z,16.12
2018-05-14T06:42:07.538Z,16.24
2018-05-14T06:43:16.185Z,16.26
2018-05-14T06:44:25.162Z,16.32
2018-05-14T06:45:33.764Z,16.32
2018-05-14T06:46:42.414Z,16.26
2018-05-14T06:47:51.057Z,16.36
2018-05-14T06:48:59.707Z,16.31
2018-05-14T06:50:08.350Z,16.39
2018-05-14T06:51:16.999Z,16.36
2018-05-14T06:52:25.648Z,16.36
2018-05-14T06:53:34.565Z,16.4
2018-05-14T06:54:43.206Z,16.43
2018-05-14T06:55:51.853Z,16.47
2018-05-14T06:57:00.505Z,16.44
2018-05-14T06:58:09.149Z,16.47
2018-05-14T06:59:17.794Z,16.5
2018-05-14T07:00:26.438Z,16.54
2018-05-14T07:01:35.084Z,16.58
2018-05-14T07:02:43.750Z,16.69
2018-05-14T07:03:52.691Z,16.57
2018-05-14T07:05:01.341Z,16.68
2018-05-14T07:06:09.992Z,16.69
2018-05-14T07:07:18.635Z,16.59
2018-05-14T07:08:27.286Z,16.66
2018-05-14T07:09:35.933Z,16.76
2018-05-14T07:10:44.586Z,16.73
2018-05-14T07:11:53.493Z,16.73
2018-05-14T07:13:02.157Z,16.73
2018-05-14T07:14:10.798Z,16.82
2018-05-14T07:15:19.449Z,16.83
2018-05-14T07:16:28.131Z,16.8
2018-05-14T07:17:36.800Z,16.83
2018-05-14T07:18:45.467Z,16.91
2018-05-14T07:19:54.116Z,16.87
2018-05-14T07:21:03.034Z,17.01
2018-05-14T07:22:11.679Z,17.01
2018-05-14T07:23:20.490Z,17.01
2018-05-14T07:24:29.765Z,17.04
2018-05-14T07:25:38.697Z,16.99
2018-05-14T07:26:47.381Z,17.04
2018-05-14T07:27:56.740Z,17.13
2018-05-14T07:29:05.445Z,17.17
2018-05-14T07:30:14.198Z,17.19
2018-05-14T07:31:23.262Z,17.28
2018-05-14T07:32:32.034Z,17.32
2018-05-14T07:33:41.311Z,17.3
2018-05-14T07:34:50.135Z,17.3
2018-05-14T07:35:58.909Z,17.3
2018-05-14T07:37:07.826Z,17.37
2018-05-14T07:38:16.473Z,17.38
2018-05-14T07:39:25.119Z,17.37
2018-05-14T07:40:34.202Z,17.44
2018-05-14T07:41:43.393Z,17.5
2018-05-14T07:42:52.043Z,17.39
2018-05-14T07:44:01.188Z,17.53
2018-05-14T07:45:09.870Z,17.54
2018-05-14T07:46:19.043Z,17.57
2018-05-14T07:47:28.175Z,17.6
2018-05-14T07:48:37.099Z,17.57
2018-05-14T07:49:45.972Z,17.6
2018-05-14T07:50:54.620Z,17.68
2018-05-14T07:52:03.469Z,17.76
2018-05-14T07:53:12.404Z,17.78
2018-05-14T07:54:21.430Z,17.76
2018-05-14T07:55:30.457Z,17.82
2018-05-14T07:56:39.366Z,17.86
2018-05-14T07:57:48.026Z,17.87
2018-05-14T07:58:56.925Z,18
2018-05-14T08:00:05.580Z,17.91
2018-05-14T08:01:14.223Z,18
2018-05-14T08:02:22.881Z,18.05
2018-05-14T08:03:31.786Z,18.06
2018-05-14T08:04:40.441Z,18.05
2018-05-14T08:05:49.143Z,18.13
2018-05-14T08:06:57.746Z,18.12
2018-05-14T08:08:06.386Z,18.26
2018-05-14T08:09:15.315Z,18.16
2018-05-14T08:10:23.970Z,18.21
2018-05-14T08:11:32.895Z,18.21
2018-05-14T08:12:41.933Z,18.21
2018-05-14T08:13:50.579Z,18.21
2018-05-14T08:14:59.223Z,18.34
2018-05-14T08:16:07.869Z,18.28
2018-05-14T08:17:16.527Z,18.28
2018-05-14T08:18:25.180Z,18.43
2018-05-14T08:19:33.827Z,18.41
2018-05-14T08:20:42.465Z,18.43
2018-05-14T08:21:51.122Z,18.55
2018-05-14T08:22:59.767Z,18.42
2018-05-14T08:24:08.428Z,18.58
2018-05-14T08:25:17.066Z,18.51
2018-05-14T08:26:25.725Z,18.61
2018-05-14T08:27:34.370Z,18.63
2018-05-14T08:28:43.021Z,18.7
2018-05-14T08:29:51.660Z,18.61
2018-05-14T08:31:00.310Z,18.68
2018-05-14T08:32:08.981Z,18.78
2018-05-14T08:33:17.632Z,18.73
2018-05-14T08:34:26.285Z,18.78
2018-05-14T08:35:34.922Z,18.79
2018-05-14T08:36:43.578Z,18.85
2018-05-14T08:37:52.487Z,18.88
2018-05-14T08:39:01.146Z,18.85
2018-05-14T08:40:10.050Z,18.88
2018-05-14T08:41:18.865Z,18.92
2018-05-14T08:42:27.857Z,18.98
2018-05-14T08:43:36.332Z,19.01
2018-05-14T08:44:45.244Z,19.04
2018-05-14T08:45:53.896Z,19.04
2018-05-14T08:47:02.540Z,19.15
2018-05-14T08:48:11.198Z,19.16
2018-05-14T08:49:19.839Z,19.24
2018-05-14T08:50:28.488Z,19.23
2018-05-14T08:51:37.135Z,19.29
2018-05-14T08:52:45.783Z,19.34
2018-05-14T08:53:54.767Z,19.26
2018-05-14T08:55:03.415Z,19.35
2018-05-14T08:56:12.065Z,19.29
2018-05-14T08:57:20.710Z,19.44
2018-05-14T08:58:29.362Z,19.49
2018-05-14T08:59:38.012Z,19.56
2018-05-14T09:00:46.739Z,19.56
2018-05-14T09:01:55.304Z,19.64
2018-05-14T09:03:03.961Z,19.72
2018-05-14T09:04:12.609Z,19.71
2018-05-14T09:05:21.264Z,19.77
2018-05-14T09:06:30.187Z,19.85
2018-05-14T09:07:38.839Z,19.79
2018-05-14T09:08:47.802Z,19.72
2018-05-14T09:09:56.444Z,19.82
2018-05-14T09:11:05.094Z,19.94
2018-05-14T09:12:13.739Z,19.99
2018-05-14T09:13:22.387Z,19.96
2018-05-14T09:14:31.046Z,20.02
2018-05-14T09:15:39.698Z,20.11
2018-05-14T09:16:48.344Z,20.03
2018-05-14T09:17:56.996Z,20.03
2018-05-14T09:19:05.914Z,20.1
2018-05-14T09:20:14.569Z,20.08
2018-05-14T09:21:23.212Z,20.14
2018-05-14T09:22:31.861Z,20.19
2018-05-14T09:23:40.508Z,20.21
2018-05-14T09:24:49.162Z,20.26
2018-05-14T09:25:57.810Z,20.24
2018-05-14T09:27:06.730Z,20.4
2018-05-14T09:28:15.378Z,20.34
2018-05-14T09:29:24.288Z,20.44
2018-05-14T09:30:32.942Z,20.37
2018-05-14T09:31:41.592Z,20.42
2018-05-14T09:32:50.239Z,20.48
2018-05-14T09:33:58.887Z,20.49
2018-05-14T09:35:07.544Z,20.55
2018-05-14T09:36:16.192Z,20.56
2018-05-14T09:37:24.845Z,20.59
2018-05-14T09:38:33.490Z,20.64
2018-05-14T09:39:42.429Z,20.6
2018-05-14T09:40:51.078Z,20.73
2018-05-14T09:42:00.005Z,20.82
2018-05-14T09:43:08.649Z,20.85
2018-05-14T09:44:17.306Z,20.86
2018-05-14T09:45:25.959Z,20.95
2018-05-14T09:46:34.611Z,21.01
2018-05-14T09:47:43.267Z,21.04
2018-05-14T09:48:52.437Z,21.04
2018-05-14T09:50:01.097Z,21.1
2018-05-14T09:51:09.846Z,21.19
2018-05-14T09:52:18.478Z,21.17
2018-05-14T09:53:27.385Z,21.15
2018-05-14T09:54:36.039Z,21.22
2018-05-14T09:55:44.963Z,21.29
2018-05-14T09:56:53.624Z,21.22
2018-05-14T09:58:02.262Z,21.2
2018-05-14T09:59:10.924Z,21.22
2018-05-14T10:00:19.836Z,21.35
2018-05-14T10:01:28.495Z,21.35
2018-05-14T10:02:37.143Z,21.43
2018-05-14T10:03:45.788Z,21.4
2018-05-14T10:04:54.435Z,21.44
2018-05-14T10:06:03.083Z,21.44
2018-05-14T10:07:11.744Z,21.54
2018-05-14T10:08:20.386Z,21.6
2018-05-14T10:09:29.340Z,21.58
2018-05-14T10:10:37.944Z,21.63
2018-05-14T10:11:46.603Z,21.54
2018-05-14T10:12:55.253Z,21.53
2018-05-14T10:14:04.246Z,21.59
2018-05-14T10:15:12.885Z,21.72
2018-05-14T10:16:21.545Z,21.78
2018-05-14T10:17:30.193Z,21.83
2018-05-14T10:18:38.858Z,21.81
2018-05-14T10:19:47.489Z,21.84
2018-05-14T10:20:56.146Z,21.83
2018-05-14T10:22:04.805Z,21.92
2018-05-14T10:23:13.455Z,22.03
2018-05-14T10:24:22.107Z,22.01
2018-05-14T10:25:30.748Z,22.08
2018-05-14T10:26:39.405Z,22.21
2018-05-14T10:27:48.050Z,22.1
2018-05-14T10:28:56.711Z,22.19
2018-05-14T10:30:05.356Z,22.21
2018-05-14T10:31:14.008Z,22.3
2018-05-14T10:32:22.654Z,22.34
2018-05-14T10:33:31.315Z,22.4
2018-05-14T10:34:39.957Z,22.43
2018-05-14T10:35:48.616Z,22.51
2018-05-14T10:36:57.262Z,22.56
2018-05-14T10:38:05.922Z,22.56
2018-05-14T10:39:14.571Z,22.55
2018-05-14T10:40:23.739Z,22.59
2018-05-14T10:41:32.657Z,22.67
2018-05-14T10:42:41.311Z,22.73
2018-05-14T10:43:49.952Z,22.73
2018-05-14T10:44:58.613Z,22.68
2018-05-14T10:46:07.520Z,22.73
2018-05-14T10:47:16.181Z,22.74
2018-05-14T10:48:25.087Z,22.74
2018-05-14T10:49:34.009Z,22.89
2018-05-14T10:50:42.656Z,22.99
2018-05-14T10:51:51.317Z,22.98
2018-05-14T10:52:59.957Z,23.04
2018-05-14T10:54:08.611Z,22.95
2018-05-14T10:55:17.259Z,23.06
2018-05-14T10:56:25.921Z,23.1
2018-05-14T10:57:34.568Z,23.17
2018-05-14T10:58:43.315Z,23.28
2018-05-14T10:59:51.865Z,23.2
2018-05-14T11:01:00.513Z,23.29
2018-05-14T11:02:09.175Z,23.25
2018-05-14T11:03:17.820Z,23.34
2018-05-14T11:04:26.474Z,23.39
2018-05-14T11:05:35.116Z,23.44
2018-05-14T11:06:44.046Z,23.42
2018-05-14T11:07:52.963Z,23.39
2018-05-14T11:09:01.619Z,23.4
2018-05-14T11:10:10.264Z,23.51
2018-05-14T11:11:18.925Z,23.62
2018-05-14T11:12:27.574Z,23.58
2018-05-14T11:13:36.220Z,23.48
2018-05-14T11:14:44.860Z,23.63
2018-05-14T11:15:53.518Z,23.58
2018-05-14T11:17:02.444Z,23.51
2018-05-14T11:18:11.098Z,23.58
2018-05-14T11:19:19.754Z,23.7
2018-05-14T11:20:28.395Z,23.69
2018-05-14T11:21:37.052Z,23.62
2018-05-14T11:22:45.700Z,23.79
2018-05-14T11:23:54.363Z,23.76
2018-05-14T11:25:03.014Z,23.89
2018-05-14T11:26:11.666Z,23.88
2018-05-14T11:27:20.313Z,24.01
2018-05-14T11:28:28.975Z,24.09
2018-05-14T11:29:37.621Z,24.09
2018-05-14T11:30:46.276Z,24.18
2018-05-14T11:31:54.931Z,24.22
2018-05-14T11:33:03.589Z,24.21
2018-05-14T11:34:12.236Z,24.21
2018-05-14T11:35:20.952Z,24.29
2018-05-14T11:36:29.552Z,24.36
2018-05-14T11:37:38.215Z,24.32
2018-05-14T11:38:46.880Z,24.43
2018-05-14T11:39:55.798Z,24.38
2018-05-14T11:41:04.449Z,24.43
2018-05-14T11:42:13.096Z,24.43
2018-05-14T11:43:22.018Z,24.44
2018-05-14T11:44:30.937Z,24.47
2018-05-14T11:45:39.593Z,24.56
2018-05-14T11:46:48.241Z,24.59
2018-05-14T11:47:56.899Z,24.69
2018-05-14T11:49:05.551Z,24.74
2018-05-14T11:50:14.473Z,24.78
2018-05-14T11:51:23.119Z,24.85
2018-05-14T11:52:32.036Z,24.84
2018-05-14T11:53:40.689Z,24.82
2018-05-14T11:54:49.611Z,24.88
2018-05-14T11:55:58.266Z,24.75
2018-05-14T11:57:06.927Z,24.78
2018-05-14T11:58:15.567Z,24.74
2018-05-14T11:59:24.220Z,24.82
2018-05-14T12:00:32.878Z,24.81
2018-05-14T12:01:41.526Z,24.85
2018-05-14T12:02:50.209Z,24.94
2018-05-14T12:03:59.532Z,24.93
2018-05-14T12:05:08.190Z,24.96
2018-05-14T12:06:16.839Z,24.96
2018-05-14T12:07:25.760Z,24.94
2018-05-14T12:08:34.409Z,24.99
2018-05-14T12:09:43.336Z,24.93
2018-05-14T12:10:51.985Z,25
2018-05-14T12:12:00.636Z,25
2018-05-14T12:13:09.616Z,25.04
2018-05-14T12:14:18.266Z,25.04
2018-05-14T12:15:26.923Z,25.03
2018-05-14T12:16:35.575Z,25.07
2018-05-14T12:17:44.228Z,25.09
2018-05-14T12:18:52.876Z,25.12
2018-05-14T12:20:01.536Z,25.12
2018-05-14T12:21:10.188Z,25.21
2018-05-14T12:22:18.841Z,25.34
2018-05-14T12:23:27.487Z,25.26
2018-05-14T12:24:36.145Z,25.3
2018-05-14T12:25:44.850Z,25.37
2018-05-14T12:26:53.455Z,25.36
2018-05-14T12:28:02.112Z,25.31
2018-05-14T12:29:10.766Z,25.37
2018-05-14T12:30:19.687Z,25.25
2018-05-14T12:31:28.352Z,25.29
2018-05-14T12:32:37.007Z,25.34
2018-05-14T12:33:45.656Z,25.3
2018-05-14T12:34:54.308Z,25.4
2018-05-14T12:36:02.962Z,25.31
2018-05-14T12:37:11.619Z,25.4
2018-05-14T12:38:20.271Z,25.36
2018-05-14T12:39:28.922Z,25.4
2018-05-14T12:40:37.575Z,25.46
2018-05-14T12:41:46.233Z,25.44
2018-05-14T12:42:54.884Z,25.41
2018-05-14T12:44:03.812Z,25.51
2018-05-14T12:45:12.464Z,25.46
2018-05-14T12:46:21.126Z,25.46
2018-05-14T12:47:29.775Z,25.44
2018-05-14T12:48:38.429Z,25.44
2018-05-14T12:49:47.081Z,25.51
2018-05-14T12:50:55.733Z,25.49
2018-05-14T12:52:04.392Z,25.52
2018-05-14T12:53:13.042Z,25.63
2018-05-14T12:54:21.698Z,25.51
2018-05-14T12:55:30.345Z,25.51
2018-05-14T12:56:39.003Z,25.46
2018-05-14T12:57:47.657Z,25.44
2018-05-14T12:58:56.314Z,25.61
2018-05-14T13:00:04.965Z,25.59
2018-05-14T13:01:13.622Z,25.63
2018-05-14T13:02:22.273Z,25.7
2018-05-14T13:03:30.926Z,25.7
2018-05-14T13:04:39.837Z,25.71
2018-05-14T13:05:48.767Z,25.81
2018-05-14T13:06:57.433Z,25.83
2018-05-14T13:08:06.438Z,25.86
2018-05-14T13:09:15.094Z,25.85
2018-05-14T13:10:23.744Z,25.73
2018-05-14T13:11:32.405Z,25.73
2018-05-14T13:12:41.324Z,25.67
2018-05-14T13:13:49.983Z,25.67
2018-05-14T13:14:58.629Z,25.63
2018-05-14T13:16:07.290Z,25.67
2018-05-14T13:17:15.945Z,25.67
2018-05-14T13:18:24.865Z,25.7
2018-05-14T13:19:33.522Z,25.73
2018-05-14T13:20:42.178Z,25.67
2018-05-14T13:21:50.828Z,25.71
2018-05-14T13:22:59.485Z,25.77
2018-05-14T13:24:08.139Z,25.68
2018-05-14T13:25:16.790Z,25.78
2018-05-14T13:26:25.440Z,25.76
2018-05-14T13:27:34.092Z,25.85
2018-05-14T13:28:42.750Z,25.83
2018-05-14T13:29:51.402Z,25.88
2018-05-14T13:31:00.318Z,25.93
2018-05-14T13:32:09.063Z,25.93
2018-05-14T13:33:17.625Z,25.95
2018-05-14T13:34:26.545Z,25.98
2018-05-14T13:35:35.199Z,26.04
2018-05-14T13:36:43.846Z,26.11
2018-05-14T13:37:52.595Z,26.11
2018-05-14T13:39:01.167Z,26.06
2018-05-14T13:40:10.085Z,26.13
2018-05-14T13:41:18.729Z,26.13
2018-05-14T13:42:27.383Z,26.07
2018-05-14T13:43:36.043Z,26.03
2018-05-14T13:44:44.699Z,26.03
2018-05-14T13:45:53.353Z,26.01
2018-05-14T13:47:02.047Z,26.08
2018-05-14T13:48:10.804Z,26.03
2018-05-14T13:49:19.449Z,26.07
2018-05-14T13:50:28.112Z,26.13
2018-05-14T13:51:36.757Z,25.96
2018-05-14T13:52:45.417Z,25.99
2018-05-14T13:53:54.066Z,25.95
2018-05-14T13:55:02.726Z,26.04
2018-05-14T13:56:11.370Z,26.1
2018-05-14T13:57:20.034Z,26.15
2018-05-14T13:58:28.685Z,26.18
2018-05-14T13:59:37.347Z,26.22
2018-05-14T14:00:45.999Z,26.18
2018-05-14T14:01:54.647Z,26.18
2018-05-14T14:03:03.302Z,26.13
2018-05-14T14:04:12.223Z,26.15
2018-05-14T14:05:20.882Z,26.18
2018-05-14T14:06:29.532Z,26.18
2018-05-14T14:07:38.188Z,26.16
2018-05-14T14:08:46.832Z,26.18
2018-05-14T14:09:55.495Z,26.18
2018-05-14T14:11:04.145Z,26.04
2018-05-14T14:12:13.609Z,26.08
2018-05-14T14:13:22.519Z,26.01
2018-05-14T14:14:31.183Z,26.18
2018-05-14T14:15:39.834Z,26.26
2018-05-14T14:16:48.490Z,26.07
2018-05-14T14:17:57.404Z,26.03
2018-05-14T14:19:06.064Z,26.06
2018-05-14T14:20:14.718Z,26.16
2018-05-14T14:21:23.371Z,26.22
2018-05-14T14:22:32.051Z,26.24
2018-05-14T14:23:41.110Z,26.13
2018-05-14T14:24:50.664Z,26.22
2018-05-14T14:25:59.320Z,26.18
2018-05-14T14:27:07.976Z,26.11
2018-05-14T14:28:16.621Z,25.95
2018-05-14T14:29:25.280Z,25.98
2018-05-14T14:30:33.929Z,25.95
2018-05-14T14:31:42.596Z,25.95
2018-05-14T14:32:51.506Z,25.98
2018-05-14T14:34:00.164Z,25.98
2018-05-14T14:35:09.094Z,25.96
2018-05-14T14:36:18.309Z,26.08
2018-05-14T14:37:26.811Z,26.06
2018-05-14T14:38:35.472Z,26.06
2018-05-14T14:39:44.394Z,25.96
2018-05-14T14:40:53.049Z,26.08
2018-05-14T14:42:01.697Z,26.1
2018-05-14T14:43:10.353Z,26.27
2018-05-14T14:44:19.000Z,26.18
2018-05-14T14:45:27.935Z,26.27
2018-05-14T14:46:36.585Z,26.26
2018-05-14T14:47:45.237Z,26.33